Time;durP1;ratioP1;P1;durP2;ratioP2;P2;SDS_P1;SDS_P2;PMS_P1;PMS_P2;Temp;Humidity;BMP_temperature;BMP_pressure;BME280_temperature;BME280_humidity;BME280_pressure;Samples;Min_cycle;Max_cycle;Signal;HPM_P1;HPM_P2
2023/04/11 00:01:50;;;;;;;0.40;0.40;;;;;;;9.69;92.02;96556.44;4984665;28;20082;-68
2023/04/11 00:04:19;;;;;;;0.50;0.50;;;;;;;9.73;91.40;96548.97;4984843;28;20060;-68
2023/04/11 00:06:47;;;;;;;0.43;0.43;;;;;;;9.37;91.40;96560.75;4985095;28;20439;-68
2023/04/11 00:09:13;;;;;;;0.40;0.40;;;;;;;9.56;90.74;96563.38;4984789;28;20085;-67
2023/04/11 00:11:40;;;;;;;0.50;0.50;;;;;;;9.54;90.64;96554.66;4984949;28;20120;-68
2023/04/11 00:14:07;;;;;;;0.40;0.40;;;;;;;9.67;90.16;96553.25;4986247;28;20054;-69
2023/04/11 00:16:34;;;;;;;0.45;0.45;;;;;;;9.32;92.20;96541.72;4988838;28;20072;-69
2023/04/11 00:19:01;;;;;;;0.50;0.50;;;;;;;9.47;92.19;96546.25;4988366;28;20501;-68
2023/04/11 00:21:28;;;;;;;0.50;0.50;;;;;;;9.27;92.95;96541.25;4989169;28;20634;-68
2023/04/11 00:23:54;;;;;;;0.40;0.40;;;;;;;9.19;92.18;96537.59;4988889;28;20047;-68
2023/04/11 00:26:21;;;;;;;0.50;0.50;;;;;;;9.37;90.44;96544.19;4988849;28;20050;-66
2023/04/11 00:28:48;;;;;;;0.40;0.40;;;;;;;9.25;90.01;96536.09;4988356;28;20100;-69
2023/04/11 00:31:15;;;;;;;0.40;0.40;;;;;;;8.88;91.45;96493.75;4988398;28;20109;-66
2023/04/11 00:33:42;;;;;;;0.45;0.45;;;;;;;9.34;90.08;96528.34;4988493;28;20168;-67
2023/04/11 00:36:09;;;;;;;0.40;0.40;;;;;;;9.46;89.85;96536.41;4988700;28;20100;-68
2023/04/11 00:38:37;;;;;;;0.50;0.50;;;;;;;9.05;90.86;96498.72;4988395;28;20054;-68
2023/04/11 00:41:03;;;;;;;0.50;0.50;;;;;;;9.40;91.82;96532.38;4988214;28;20552;-68
2023/04/11 00:43:30;;;;;;;0.40;0.40;;;;;;;9.03;90.74;96465.94;4988469;28;20167;-68
2023/04/11 00:45:57;;;;;;;0.40;0.40;;;;;;;9.58;89.49;96544.44;4988164;28;20465;-68
2023/04/11 00:48:27;;;;;;;0.50;0.50;;;;;;;9.61;88.92;96521.56;4986928;28;20054;-67
2023/04/11 00:50:54;;;;;;;0.40;0.40;;;;;;;9.51;88.07;96544.38;4986545;28;20050;-66
2023/04/11 00:53:21;;;;;;;0.40;0.40;;;;;;;9.12;89.18;96501.56;4988173;28;20101;-67
2023/04/11 00:55:48;;;;;;;0.45;0.45;;;;;;;8.98;90.02;96493.09;4987657;28;20086;-67
2023/04/11 00:58:15;;;;;;;0.40;0.40;;;;;;;9.40;89.07;96540.66;4987996;28;20058;-70
2023/04/11 01:00:43;;;;;;;0.40;0.40;;;;;;;9.44;87.96;96532.44;4987655;28;20490;-68
2023/04/11 01:03:10;;;;;;;0.40;0.40;;;;;;;9.39;89.85;96518.94;4987923;28;20073;-69
2023/04/11 01:05:37;;;;;;;0.50;0.50;;;;;;;8.65;90.14;96429.50;4987544;28;20108;-67
2023/04/11 01:08:06;;;;;;;0.50;0.50;;;;;;;8.33;89.42;96375.81;4987892;28;20086;-69
2023/04/11 01:10:33;;;;;;;0.40;0.40;;;;;;;9.40;90.06;96510.25;4986313;28;20054;-69
2023/04/11 01:13:00;;;;;;;0.40;0.40;;;;;;;9.19;88.84;96498.91;4987943;28;20150;-67
2023/04/11 01:15:27;;;;;;;0.40;0.40;;;;;;;9.05;88.85;96437.94;4986396;28;20117;-70
2023/04/11 01:17:54;;;;;;;0.40;0.40;;;;;;;8.99;90.04;96472.59;4987397;28;20369;-69
2023/04/11 01:20:21;;;;;;;0.50;0.50;;;;;;;9.27;90.21;96500.59;4987111;28;20054;-67
2023/04/11 01:22:48;;;;;;;0.40;0.40;;;;;;;9.53;90.38;96508.03;4986258;28;20051;-69
2023/04/11 01:25:20;;;;;;;0.50;0.50;;;;;;;9.00;90.13;96421.69;4987102;28;20116;-69
2023/04/11 01:27:47;;;;;;;0.50;0.50;;;;;;;9.58;89.52;96489.13;4987908;28;20497;-67
2023/04/11 01:30:14;;;;;;;0.50;0.50;;;;;;;9.19;88.02;96418.78;4987610;28;20062;-69
2023/04/11 01:32:40;;;;;;;0.40;0.40;;;;;;;9.79;88.46;96505.97;4986156;28;20051;-70
2023/04/11 01:35:09;;;;;;;0.50;0.50;;;;;;;9.23;88.60;96449.22;4986052;28;20054;-69
2023/04/11 01:37:36;;;;;;;0.50;0.50;;;;;;;9.65;88.33;96505.81;4987081;28;20117;-69
2023/04/11 01:40:04;;;;;;;0.40;0.40;;;;;;;9.68;88.45;96490.44;4985808;28;20058;-68
2023/04/11 01:42:31;;;;;;;0.45;0.45;;;;;;;9.35;89.19;96488.47;4986072;28;20145;-69
2023/04/11 01:44:58;;;;;;;0.40;0.40;;;;;;;8.98;88.91;96421.28;4987030;28;20054;-68
2023/04/11 01:47:25;;;;;;;0.40;0.40;;;;;;;9.31;89.17;96448.91;4987261;28;20042;-66
2023/04/11 01:49:52;;;;;;;0.43;0.43;;;;;;;9.70;89.12;96502.72;4986974;28;20140;-69
2023/04/11 01:52:19;;;;;;;0.40;0.40;;;;;;;9.58;89.34;96505.72;4985550;28;20476;-68
2023/04/11 01:54:45;;;;;;;0.47;0.47;;;;;;;9.11;90.84;96447.50;4986651;28;20153;-66
2023/04/11 01:57:12;;;;;;;0.40;0.40;;;;;;;9.50;90.85;96487.47;4986729;28;20097;-69
2023/04/11 01:59:38;;;;;;;0.50;0.50;;;;;;;9.50;89.99;96493.00;4985338;28;20422;-67
2023/04/11 02:02:05;;;;;;;0.45;0.45;;;;;;;8.74;85.82;96372.06;4987030;28;20046;-69
2023/04/11 02:04:32;;;;;;;0.50;0.50;;;;;;;9.37;88.52;96471.50;4986699;28;20501;-68
2023/04/11 02:06:59;;;;;;;0.40;0.40;;;;;;;9.03;88.36;96412.66;4985570;28;20909;-69
2023/04/11 02:09:25;;;;;;;0.40;0.40;;;;;;;9.50;88.94;96470.88;4986455;28;20054;-69
2023/04/11 02:11:52;;;;;;;0.50;0.50;;;;;;;8.63;87.47;96322.22;4986703;28;20062;-69
2023/04/11 02:14:19;;;;;;;0.50;0.50;;;;;;;9.02;87.47;96383.47;4986735;28;20121;-70
2023/04/11 02:16:53;;;;;;;0.50;0.50;;;;;;;9.36;89.16;96459.66;4986566;28;20505;-69
2023/04/11 02:19:22;;;;;;;0.50;0.50;;;;;;;9.38;88.54;96451.78;4984916;28;20594;-69
2023/04/11 02:21:49;;;;;;;0.50;0.50;;;;;;;8.89;88.68;96391.19;4984589;28;20074;-67
2023/04/11 02:24:15;;;;;;;0.40;0.40;;;;;;;9.19;90.56;96454.72;4986450;28;20056;-68
2023/04/11 02:26:42;;;;;;;0.40;0.40;;;;;;;9.21;91.63;96446.84;4984952;28;20058;-69
2023/04/11 02:29:09;;;;;;;0.40;0.40;;;;;;;9.12;91.24;96449.06;4986476;28;20058;-68
2023/04/11 02:31:36;;;;;;;0.47;0.47;;;;;;;9.16;92.28;96445.22;4986030;28;20078;-69
2023/04/11 02:34:03;;;;;;;0.40;0.40;;;;;;;8.60;92.65;96385.69;4984933;28;20133;-68
2023/04/11 02:36:30;;;;;;;0.40;0.40;;;;;;;8.75;93.58;96426.91;4985442;28;20115;-69
2023/04/11 02:38:56;;;;;;;0.40;0.40;;;;;;;8.88;93.54;96438.53;4985978;28;20054;-67
2023/04/11 02:41:23;;;;;;;0.40;0.40;;;;;;;8.87;94.99;96442.44;4984706;28;20129;-68
2023/04/11 02:43:49;;;;;;;0.40;0.40;;;;;;;8.82;94.63;96412.41;4986462;28;20100;-67
2023/04/11 02:46:16;;;;;;;0.50;0.50;;;;;;;8.87;91.75;96431.38;4986015;28;21029;-67
2023/04/11 02:48:43;;;;;;;0.40;0.40;;;;;;;8.51;93.81;96412.72;4985825;28;20137;-67
2023/04/11 02:51:09;;;;;;;0.50;0.50;;;;;;;8.78;93.12;96428.13;4985968;28;20574;-67
2023/04/11 02:53:36;;;;;;;0.40;0.40;;;;;;;8.86;89.70;96432.56;4985540;28;20050;-67
2023/04/11 02:56:03;;;;;;;0.40;0.40;;;;;;;8.58;90.16;96393.53;4984074;28;20108;-66
2023/04/11 02:58:30;;;;;;;0.40;0.40;;;;;;;8.88;91.96;96433.00;4985402;28;20054;-68
2023/04/11 03:00:56;;;;;;;0.40;0.40;;;;;;;8.45;92.64;96361.78;4985253;28;20062;-68
2023/04/11 03:03:23;;;;;;;0.40;0.40;;;;;;;8.90;93.41;96425.09;4985786;28;20054;-67
2023/04/11 03:05:50;;;;;;;0.47;0.47;;;;;;;8.65;91.00;96390.84;4984238;28;20054;-67
2023/04/11 03:08:16;;;;;;;0.43;0.43;;;;;;;8.90;92.43;96416.81;4985514;28;20536;-67
2023/04/11 03:10:43;;;;;;;0.40;0.40;;;;;;;8.34;93.94;96336.03;4985287;28;20108;-68
2023/04/11 03:13:10;;;;;;;0.50;0.50;;;;;;;9.00;93.85;96427.22;4983812;28;20145;-67
2023/04/11 03:15:36;;;;;;;0.40;0.40;;;;;;;9.05;93.74;96426.91;4985235;28;20061;-69
2023/04/11 03:18:03;;;;;;;0.50;0.50;;;;;;;9.01;92.80;96406.72;4983653;28;20050;-67
2023/04/11 03:20:30;;;;;;;0.50;0.50;;;;;;;9.12;92.38;96421.44;4985174;28;20840;-69
2023/04/11 03:22:57;;;;;;;0.50;0.50;;;;;;;9.16;90.79;96422.31;4985265;28;20047;-67
2023/04/11 03:25:23;;;;;;;0.40;0.40;;;;;;;8.89;90.11;96415.25;4985224;28;20050;-66
2023/04/11 03:27:50;;;;;;;0.40;0.40;;;;;;;9.03;91.10;96426.47;4983811;28;20054;-68
2023/04/11 03:30:17;;;;;;;0.50;0.50;;;;;;;9.08;90.20;96420.63;4975504;28;20054;-67
2023/04/11 03:32:43;;;;;;;0.40;0.40;;;;;;;9.21;89.15;96424.75;4966409;28;20093;-69
2023/04/11 03:35:10;;;;;;;0.50;0.50;;;;;;;9.00;89.36;96407.88;4972906;28;20066;-68
2023/04/11 03:37:37;;;;;;;0.40;0.40;;;;;;;9.24;88.61;96429.50;4960510;28;20051;-68
2023/04/11 03:40:07;;;;;;;0.50;0.50;;;;;;;9.31;86.77;96418.53;4965901;28;20130;-68
2023/04/11 03:42:36;;;;;;;0.40;0.40;;;;;;;9.35;87.76;96416.63;4964049;28;20051;-68
2023/04/11 03:45:04;;;;;;;0.40;0.40;;;;;;;8.86;87.34;96324.88;4965471;28;20090;-67
2023/04/11 03:47:30;;;;;;;0.40;0.40;;;;;;;9.49;87.21;96410.44;4965676;28;20055;-66
2023/04/11 03:49:57;;;;;;;0.50;0.50;;;;;;;9.46;88.59;96403.72;4965261;28;20482;-68
2023/04/11 03:52:24;;;;;;;0.50;0.50;;;;;;;9.56;86.80;96397.50;4965837;28;20062;-68
2023/04/11 03:54:50;;;;;;;0.40;0.40;;;;;;;9.52;86.31;96385.59;4965548;28;20557;-65
2023/04/11 03:57:17;;;;;;;0.50;0.50;;;;;;;9.63;87.01;96402.28;4965522;28;20510;-68
2023/04/11 03:59:46;;;;;;;0.50;0.50;;;;;;;9.65;85.95;96400.75;4965216;28;20054;-67
2023/04/11 04:02:16;;;;;;;0.50;0.50;;;;;;;9.20;85.78;96363.16;4978654;28;20059;-67
2023/04/11 04:04:45;;;;;;;0.50;0.50;;;;;;;9.77;84.26;96402.47;4965371;28;20552;-68
2023/04/11 04:07:13;;;;;;;0.50;0.50;;;;;;;9.77;83.48;96411.53;4965799;28;20055;-69
2023/04/11 04:09:40;;;;;;;0.47;0.47;;;;;;;9.60;84.79;96409.38;4983229;28;20058;-69
2023/04/11 04:12:06;;;;;;;0.40;0.40;;;;;;;9.29;84.88;96338.00;4985037;28;20155;-70
2023/04/11 04:14:33;;;;;;;0.50;0.50;;;;;;;8.71;83.85;96245.81;4984731;28;20236;-69
2023/04/11 04:17:00;;;;;;;0.43;0.43;;;;;;;9.38;82.30;96390.19;4984470;28;20084;-67
2023/04/11 04:19:26;;;;;;;0.50;0.50;;;;;;;9.18;87.21;96398.63;4984307;28;20501;-68
2023/04/11 04:21:56;;;;;;;0.40;0.40;;;;;;;9.09;86.01;96361.44;4984889;28;20471;-67
2023/04/11 04:24:26;;;;;;;0.40;0.40;;;;;;;8.93;85.53;96352.59;4983604;28;20085;-67
2023/04/11 04:26:56;;;;;;;0.40;0.40;;;;;;;9.27;81.67;96370.72;4984124;28;20054;-65
2023/04/11 04:29:28;;;;;;;0.40;0.40;;;;;;;9.41;81.93;96406.81;4983925;28;20054;-69
2023/04/11 04:31:55;;;;;;;0.40;0.40;;;;;;;9.62;82.00;96367.53;4984009;28;20050;-69
2023/04/11 04:34:23;;;;;;;0.40;0.40;;;;;;;9.56;81.93;96347.75;4984246;28;20062;-69
2023/04/11 04:36:49;;;;;;;0.50;0.50;;;;;;;9.76;81.33;96362.94;4998869;28;20552;-66
2023/04/11 04:39:18;;;;;;;0.47;0.47;;;;;;;9.89;81.17;96360.66;4984514;28;20509;-68
2023/04/11 04:41:48;;;;;;;0.45;0.45;;;;;;;9.99;81.12;96360.75;4983259;28;20058;-69
2023/04/11 04:44:15;;;;;;;0.50;0.50;;;;;;;9.35;81.88;96225.91;4975097;28;20058;-69
2023/04/11 04:46:42;;;;;;;0.50;0.50;;;;;;;10.23;82.26;96359.38;4963770;28;20549;-69
2023/04/11 04:49:09;;;;;;;0.40;0.40;;;;;;;10.16;81.64;96337.97;4965156;28;20059;-69
2023/04/11 04:51:36;;;;;;;0.40;0.40;;;;;;;10.25;82.28;96335.69;4963592;28;20138;-69
2023/04/11 04:54:03;;;;;;;0.50;0.50;;;;;;;10.35;81.83;96340.47;4965292;28;20059;-66
2023/04/11 04:56:30;;;;;;;0.50;0.50;;;;;;;10.15;80.42;96303.19;4965134;28;20089;-69
2023/04/11 04:58:57;;;;;;;0.50;0.50;;;;;;;10.34;81.58;96343.63;4964588;28;20592;-66
2023/04/11 05:01:26;;;;;;;0.50;0.50;;;;;;;10.19;83.12;96341.97;4967940;28;20318;-69
2023/04/11 05:04:00;;;;;;;0.50;0.50;;;;;;;10.11;83.03;96345.84;4968466;28;20061;-67
2023/04/11 05:06:30;;;;;;;0.50;0.50;;;;;;;10.27;83.17;96343.59;4968166;28;20048;-69
2023/04/11 05:08:58;;;;;;;0.50;0.50;;;;;;;9.90;83.33;96269.00;4966807;28;20153;-68
2023/04/11 05:11:26;;;;;;;0.50;0.50;;;;;;;9.96;80.02;96310.91;4968109;28;20584;-69
2023/04/11 05:13:52;;;;;;;0.50;0.50;;;;;;;10.45;80.29;96348.06;4968225;28;20113;-71
2023/04/11 05:16:20;;;;;;;0.50;0.50;;;;;;;10.51;79.41;96371.44;4968299;28;20777;-70
2023/04/11 05:18:47;;;;;;;0.50;0.50;;;;;;;10.31;78.92;96323.06;4968198;28;20117;-68
2023/04/11 05:21:14;;;;;;;0.50;0.50;;;;;;;10.24;79.03;96311.94;4967946;28;20066;-69
2023/04/11 05:23:40;;;;;;;0.50;0.50;;;;;;;10.45;77.85;96309.31;4975938;28;20112;-69
2023/04/11 05:26:07;;;;;;;0.50;0.50;;;;;;;10.91;78.46;96361.38;4987583;28;20054;-69
2023/04/11 05:28:34;;;;;;;0.50;0.50;;;;;;;10.90;78.96;96343.16;4978796;28;20160;-69
2023/04/11 05:31:01;;;;;;;0.50;0.50;;;;;;;11.00;79.51;96347.97;4967854;28;20595;-69
2023/04/11 05:33:29;;;;;;;0.50;0.50;;;;;;;10.95;78.74;96362.19;4966803;28;20046;-69
2023/04/11 05:35:56;;;;;;;0.50;0.50;;;;;;;9.90;79.49;96227.50;4958718;28;20110;-66
2023/04/11 05:38:23;;;;;;;0.50;0.50;;;;;;;10.88;79.26;96345.50;4963674;28;20529;-59
2023/04/11 05:40:49;;;;;;;0.50;0.50;;;;;;;9.99;79.79;96232.72;4966838;28;20109;-61
2023/04/11 05:43:16;;;;;;;0.50;0.50;;;;;;;10.60;77.92;96308.22;4966795;28;20085;-61
2023/04/11 05:45:46;;;;;;;0.50;0.50;;;;;;;10.90;79.58;96332.06;4950327;28;20315;-59
2023/04/11 05:48:13;;;;;;;0.40;0.40;;;;;;;10.16;80.27;96290.94;4960927;28;20109;-59
2023/04/11 05:50:41;;;;;;;0.50;0.50;;;;;;;10.65;81.47;96354.13;4959967;28;20561;-60
2023/04/11 05:53:08;;;;;;;0.47;0.47;;;;;;;10.81;83.33;96345.50;4955049;28;20061;-66
2023/04/11 05:55:35;;;;;;;0.50;0.50;;;;;;;10.19;82.50;96287.41;4959730;28;20485;-60
2023/04/11 05:58:03;;;;;;;0.50;0.50;;;;;;;10.97;82.76;96343.19;4962208;28;20584;-61
2023/04/11 06:00:31;;;;;;;0.50;0.50;;;;;;;10.46;81.63;96274.88;4961429;28;20059;-62
2023/04/11 06:02:58;;;;;;;0.50;0.50;;;;;;;11.01;81.69;96341.22;4964494;28;20391;-65
2023/04/11 06:05:30;;;;;;;0.50;0.50;;;;;;;11.08;82.51;96305.22;4963391;28;20550;-60
2023/04/11 06:08:00;;;;;;;0.50;0.50;;;;;;;11.06;81.49;96257.72;4963123;28;20066;-65
2023/04/11 06:10:28;;;;;;;0.50;0.50;;;;;;;11.76;79.33;96341.06;4947442;28;20536;-62
2023/04/11 06:12:55;;;;;;;0.50;0.50;;;;;;;11.39;76.69;96348.88;4944922;28;20137;-67
2023/04/11 06:15:24;;;;;;;0.50;0.50;;;;;;;11.79;79.21;96345.81;4952093;28;20126;-60
2023/04/11 06:17:51;;;;;;;0.57;0.57;;;;;;;12.08;77.66;96336.28;4944273;29;20055;-59
2023/04/11 06:20:18;;;;;;;0.50;0.50;;;;;;;12.13;76.18;96349.78;4945783;28;20055;-64
2023/04/11 06:22:49;;;;;;;0.50;0.50;;;;;;;12.08;76.16;96275.22;4954088;28;20059;-59
2023/04/11 06:25:20;;;;;;;0.50;0.50;;;;;;;12.43;74.59;96319.59;4950932;28;20438;-60
2023/04/11 06:27:47;;;;;;;0.50;0.50;;;;;;;12.44;73.59;96309.28;4948626;28;20047;-61
2023/04/11 06:30:16;;;;;;;0.60;0.60;;;;;;;11.98;73.64;96246.28;4945905;28;20063;-65
2023/04/11 06:32:42;;;;;;;0.50;0.50;;;;;;;12.65;73.83;96335.03;4954178;28;20062;-60
2023/04/11 06:35:09;;;;;;;0.60;0.60;;;;;;;12.36;73.35;96285.50;4965506;28;20454;-68
2023/04/11 06:37:36;;;;;;;0.60;0.60;;;;;;;12.80;70.78;96331.03;4962971;28;20058;-70
2023/04/11 06:40:04;;;;;;;0.60;0.60;;;;;;;12.64;71.79;96297.34;4963149;28;20139;-61
2023/04/11 06:42:31;;;;;;;0.55;0.55;;;;;;;12.83;72.87;96315.53;4950689;28;20080;-60
2023/04/11 06:44:58;;;;;;;0.50;0.50;;;;;;;12.50;73.60;96302.13;4946024;29;20058;-62
2023/04/11 06:47:24;;;;;;;0.60;0.60;;;;;;;12.24;73.16;96272.81;4949563;28;20059;-63
2023/04/11 06:49:51;;;;;;;0.60;0.60;;;;;;;12.65;71.88;96315.56;4957756;28;20533;-62
2023/04/11 06:52:18;;;;;;;0.50;0.50;;;;;;;10.87;71.93;96001.22;4951752;28;20082;-61
2023/04/11 06:54:46;;;;;;;0.52;0.52;;;;;;;12.22;71.91;96214.13;4949854;28;20121;-64
2023/04/11 06:57:13;;;;;;;0.60;0.60;;;;;;;12.34;70.49;96310.91;4955067;28;20071;-68
2023/04/11 06:59:40;;;;;;;0.50;0.50;;;;;;;12.25;74.14;96313.28;4960505;28;20092;-60
2023/04/11 07:02:07;;;;;;;0.60;0.60;;;;;;;12.17;71.71;96273.63;4945954;29;20142;-63
2023/04/11 07:04:33;;;;;;;0.50;0.50;;;;;;;11.59;68.66;96217.75;4946097;29;20047;-59
2023/04/11 07:07:00;;;;;;;0.50;0.50;;;;;;;10.28;73.16;96149.47;4951470;28;20086;-61
2023/04/11 07:09:28;;;;;;;0.50;0.50;;;;;;;11.62;76.46;96302.16;4956807;28;20050;-66
2023/04/11 07:11:55;;;;;;;0.50;0.50;;;;;;;11.69;73.77;96280.00;4966018;28;20104;-62
2023/04/11 07:14:22;;;;;;;0.60;0.60;;;;;;;12.08;73.71;96309.34;4965763;28;20073;-61
2023/04/11 07:16:48;;;;;;;0.50;0.50;;;;;;;11.44;73.60;96173.78;4963076;28;20055;-64
2023/04/11 07:19:15;;;;;;;0.60;0.60;;;;;;;12.68;73.69;96298.09;4946685;29;20149;-64
2023/04/11 07:21:42;;;;;;;0.50;0.50;;;;;;;12.96;72.38;96325.00;4946482;28;20063;-61
2023/04/11 07:24:09;;;;;;;0.52;0.52;;;;;;;12.89;69.96;96314.72;4947474;28;20047;-71
2023/04/11 07:26:37;;;;;;;0.57;0.57;;;;;;;12.67;68.32;96274.31;4949591;28;20051;-66
2023/04/11 07:29:04;;;;;;;0.60;0.60;;;;;;;12.89;67.86;96275.00;4946088;28;20058;-63
2023/04/11 07:31:35;;;;;;;0.60;0.60;;;;;;;13.17;67.55;96303.50;4945842;29;20054;-62
2023/04/11 07:34:02;;;;;;;0.50;0.50;;;;;;;12.91;68.21;96306.78;4946754;28;20059;-61
2023/04/11 07:36:28;;;;;;;0.60;0.60;;;;;;;12.42;68.95;96306.91;4946011;29;20473;-72
2023/04/11 07:38:56;;;;;;;0.60;0.60;;;;;;;12.91;70.24;96292.06;4962555;28;20055;-62
2023/04/11 07:41:23;;;;;;;0.50;0.50;;;;;;;13.15;69.13;96289.19;4965237;28;20054;-61
2023/04/11 07:43:49;;;;;;;0.60;0.60;;;;;;;13.27;65.73;96297.09;4959587;28;20047;-67
2023/04/11 07:46:16;;;;;;;0.50;0.50;;;;;;;12.51;66.15;96175.94;4960752;28;20139;-66
2023/04/11 07:48:43;;;;;;;0.50;0.50;;;;;;;12.90;70.07;96199.53;4949542;28;20490;-69
2023/04/11 07:51:09;;;;;;;0.60;0.60;;;;;;;12.99;65.15;96297.19;4945132;28;20089;-67
2023/04/11 07:53:36;;;;;;;0.57;0.57;;;;;;;12.72;66.89;96273.88;4954678;28;20090;-60
2023/04/11 07:56:03;;;;;;;0.50;0.50;;;;;;;12.93;69.33;96279.34;4947609;28;20066;-66
2023/04/11 07:58:30;;;;;;;0.60;0.60;;;;;;;12.78;68.07;96225.03;4948182;28;20110;-61
2023/04/11 08:00:58;;;;;;;0.60;0.60;;;;;;;13.25;68.07;96243.84;4957649;28;20071;-63
2023/04/11 08:03:25;;;;;;;0.60;0.60;;;;;;;14.22;65.57;96273.31;4963224;28;20055;-64
2023/04/11 08:05:52;;;;;;;0.60;0.60;;;;;;;14.00;62.84;96205.09;4964315;28;20055;-68
2023/04/11 08:08:19;;;;;;;0.60;0.60;;;;;;;13.65;62.23;96234.81;4964942;28;20071;-71
2023/04/11 08:10:49;;;;;;;0.60;0.60;;;;;;;14.30;62.88;96292.34;4954623;28;20051;-66
2023/04/11 08:13:17;;;;;;;0.60;0.60;;;;;;;13.59;60.88;96292.09;4945501;28;20138;-65
2023/04/11 08:15:44;;;;;;;0.60;0.60;;;;;;;13.74;61.63;96286.47;4958633;28;20066;-62
2023/04/11 08:18:11;;;;;;;0.60;0.60;;;;;;;13.57;63.59;96233.31;4960692;28;20050;-70
2023/04/11 08:20:39;;;;;;;0.70;0.70;;;;;;;13.94;61.12;96301.41;4964854;28;20677;-61
2023/04/11 08:23:07;;;;;;;0.65;0.65;;;;;;;13.70;59.08;96301.16;4950345;28;20063;-64
2023/04/11 08:25:35;;;;;;;0.60;0.60;;;;;;;13.28;61.73;96219.97;4953001;28;20099;-64
2023/04/11 08:28:03;;;;;;;0.60;0.60;;;;;;;13.85;61.15;96271.22;4962074;28;20058;-61
2023/04/11 08:30:31;;;;;;;0.63;0.63;;;;;;;13.91;60.79;96225.03;4964359;28;20047;-61
2023/04/11 08:32:58;;;;;;;0.60;0.60;;;;;;;14.11;60.78;96167.56;4963386;28;20379;-63
2023/04/11 08:35:24;;;;;;;0.60;0.60;;;;;;;14.99;59.09;96242.59;4964434;28;20070;-60
2023/04/11 08:37:51;;;;;;;0.60;0.60;;;;;;;14.44;57.67;96158.47;4968340;28;20051;-62
2023/04/11 08:40:18;;;;;;;0.70;0.70;;;;;;;14.68;59.67;96174.09;4962413;28;20517;-63
2023/04/11 08:42:45;;;;;;;0.70;0.70;;;;;;;14.75;56.11;96156.47;4957578;28;20426;-62
2023/04/11 08:45:12;;;;;;;0.60;0.60;;;;;;;15.57;55.52;96230.22;4957193;28;20133;-63
2023/04/11 08:47:39;;;;;;;0.70;0.70;;;;;;;14.83;54.76;96152.38;4968306;28;20113;-61
2023/04/11 08:50:08;;;;;;;0.70;0.70;;;;;;;14.98;55.23;96212.31;4960438;28;20520;-61
2023/04/11 08:52:37;;;;;;;0.70;0.70;;;;;;;14.66;54.60;96159.78;4967806;28;20051;-63
2023/04/11 08:55:04;;;;;;;0.60;0.60;;;;;;;15.06;55.39;96224.97;4966153;28;20357;-60
2023/04/11 08:57:31;;;;;;;0.60;0.60;;;;;;;14.41;51.79;96161.28;4953418;28;20360;-67
2023/04/11 09:00:17;;;;;;;0.60;0.60;;;;;;;13.85;52.69;96134.84;4958055;28;20605;-62
2023/04/11 09:03:02;;;;;;;0.60;0.60;;;;;;;13.96;54.35;96198.78;4963340;28;20062;-64
2023/04/11 09:05:31;;;;;;;0.60;0.60;;;;;;;14.10;54.86;96215.34;4951298;28;20051;-62
2023/04/11 09:07:59;;;;;;;0.60;0.60;;;;;;;12.22;53.73;95997.56;4962991;28;20066;-67
2023/04/11 09:10:26;;;;;;;0.60;0.60;;;;;;;13.96;55.35;96198.78;4964747;28;20114;-67
2023/04/11 09:12:54;;;;;;;0.70;0.70;;;;;;;14.23;54.43;96174.59;4950757;28;20334;-61
2023/04/11 09:15:24;;;;;;;0.60;0.60;;;;;;;14.12;51.27;96190.63;4967775;28;20061;-64
2023/04/11 09:17:51;;;;;;;0.60;0.60;;;;;;;12.25;50.85;95919.00;4967881;28;20094;-65
2023/04/11 09:20:25;;;;;;;0.60;0.60;;;;;;;13.35;49.52;96062.22;4967757;28;20153;-62
2023/04/11 09:22:52;;;;;;;0.60;0.60;;;;;;;13.82;50.56;96115.38;4966069;28;20050;-61
2023/04/11 09:25:21;;;;;;;0.60;0.60;;;;;;;14.40;51.01;96184.78;4967207;28;20050;-66
2023/04/11 09:27:48;;;;;;;0.60;0.60;;;;;;;14.11;50.50;96150.06;4967260;28;20055;-67
2023/04/11 09:30:23;;;;;;;0.60;0.60;;;;;;;14.18;49.55;96167.47;4967712;28;20054;-66
2023/04/11 09:32:52;;;;;;;0.60;0.60;;;;;;;14.03;49.60;96188.34;4967301;28;20058;-67
2023/04/11 09:35:24;;;;;;;0.60;0.60;;;;;;;14.36;50.26;96192.38;4967224;28;20070;-62
2023/04/11 09:37:59;;;;;;;0.60;0.60;;;;;;;14.33;47.95;96184.88;4967220;28;20058;-62
2023/04/11 09:40:30;;;;;;;0.60;0.60;;;;;;;14.53;48.09;96185.81;4965940;28;20418;-62
2023/04/11 09:42:59;;;;;;;0.60;0.60;;;;;;;14.67;47.81;96182.84;4965826;28;20109;-63
2023/04/11 09:45:27;;;;;;;0.60;0.60;;;;;;;14.23;48.21;96118.88;4965265;28;20055;-63
2023/04/11 09:47:55;;;;;;;0.68;0.68;;;;;;;14.31;47.12;96114.84;4966979;28;20055;-62
2023/04/11 09:50:24;;;;;;;0.70;0.70;;;;;;;15.10;45.52;96178.28;4967408;28;20050;-63
2023/04/11 09:52:51;;;;;;;0.60;0.60;;;;;;;14.86;46.28;96135.59;4966020;28;20583;-61
2023/04/11 09:55:20;;;;;;;0.60;0.60;;;;;;;14.95;46.47;96157.38;4946985;28;20239;-57
2023/04/11 09:57:49;;;;;;;0.60;0.60;;;;;;;15.22;45.30;96158.19;4956307;28;20542;-65
2023/04/11 10:00:21;;;;;;;0.60;0.60;;;;;;;15.40;45.09;96150.34;4960020;28;20057;-62
2023/04/11 10:02:51;;;;;;;0.60;0.60;;;;;;;14.76;46.72;96153.25;4955417;28;20505;-64
2023/04/11 10:05:24;;;;;;;0.70;0.70;;;;;;;14.80;44.07;96092.66;4964973;28;20585;-61
2023/04/11 10:07:58;;;;;;;0.70;0.70;;;;;;;15.67;42.88;96156.66;4964856;28;20450;-56
2023/04/11 10:10:25;;;;;;;0.70;0.70;;;;;;;15.74;42.14;96139.00;4961960;28;20047;-57
2023/04/11 10:12:51;;;;;;;0.63;0.63;;;;;;;15.41;43.75;96064.63;4957110;28;20566;-62
2023/04/11 10:15:18;;;;;;;0.70;0.70;;;;;;;15.65;41.76;96074.56;4963456;28;20105;-61
2023/04/11 10:18:11;;;;;;;0.70;0.70;;;;;;;15.53;43.59;96156.13;4960766;28;20066;-65
2023/04/11 10:20:43;;;;;;;0.70;0.70;;;;;;;13.92;45.24;96036.53;4963614;28;20049;-68
2023/04/11 10:23:11;;;;;;;0.70;0.70;;;;;;;14.23;43.48;96149.53;4960844;28;20506;-63
2023/04/11 10:25:52;;;;;;;0.70;0.70;;;;;;;14.20;42.90;96114.16;4946676;28;20055;-61
2023/04/11 10:28:37;;;;;;;0.60;0.60;;;;;;;14.46;44.35;96138.53;4944177;28;20078;-59
2023/04/11 10:31:16;;;;;;;0.60;0.60;;;;;;;13.45;44.11;96014.00;4953892;28;20572;-62
2023/04/11 10:34:10;;;;;;;0.60;0.60;;;;;;;14.57;42.64;96102.97;4953216;28;20667;-61
2023/04/11 10:37:16;;;;;;;0.60;0.60;;;;;;;14.13;44.85;96114.25;4942520;28;20316;-62
2023/04/11 10:39:49;;;;;;;0.60;0.60;;;;;;;14.09;44.95;96119.06;4961996;28;20125;-58
2023/04/11 10:42:51;;;;;;;0.68;0.68;;;;;;;14.13;43.73;96119.81;4963975;28;20510;-61
2023/04/11 10:45:20;;;;;;;0.60;0.60;;;;;;;14.15;43.67;96122.97;4945321;28;20601;-61
2023/04/11 10:47:56;;;;;;;0.60;0.60;;;;;;;14.31;42.95;96109.25;4960716;28;20071;-61
2023/04/11 10:50:25;;;;;;;0.60;0.60;;;;;;;14.34;43.44;96102.84;4958459;28;20078;-59
2023/04/11 10:52:53;;;;;;;0.60;0.60;;;;;;;14.49;43.33;96101.47;4950341;28;20070;-62
2023/04/11 10:55:20;;;;;;;0.60;0.60;;;;;;;14.48;42.42;96114.63;4949951;28;20497;-65
2023/04/11 10:58:08;;;;;;;0.60;0.60;;;;;;;14.38;42.04;96101.63;4948894;28;20503;-66
2023/04/11 11:00:50;;;;;;;0.60;0.60;;;;;;;14.42;42.68;96082.84;4964454;28;20166;-63
2023/04/11 11:03:18;;;;;;;0.60;0.60;;;;;;;13.96;42.75;96012.22;4964673;28;20127;-62
2023/04/11 11:06:05;;;;;;;0.60;0.60;;;;;;;14.39;42.86;96088.47;4959280;28;20109;-59
2023/04/11 11:08:36;;;;;;;0.60;0.60;;;;;;;14.31;43.14;96087.78;4964605;28;20086;-60
2023/04/11 11:11:05;;;;;;;0.60;0.60;;;;;;;14.23;42.56;96085.47;4950302;28;20466;-62
2023/04/11 11:13:42;;;;;;;0.60;0.60;;;;;;;14.05;42.20;96084.91;4963259;28;20057;-65
2023/04/11 11:16:23;;;;;;;0.60;0.60;;;;;;;13.69;42.58;96095.63;4965745;28;20082;-62
2023/04/11 11:18:52;;;;;;;0.60;0.60;;;;;;;13.41;43.37;96084.78;4966113;28;20086;-59
2023/04/11 11:21:23;;;;;;;0.50;0.50;;;;;;;13.65;44.28;96084.56;4954476;28;20054;-63
2023/04/11 11:24:01;;;;;;;0.50;0.50;;;;;;;13.89;44.30;96071.56;4965390;28;20066;-61
2023/04/11 11:26:38;;;;;;;0.70;0.70;;;;;;;14.25;44.95;96061.59;4963840;28;20066;-58
2023/04/11 11:29:05;;;;;;;0.60;0.60;;;;;;;13.76;42.08;96027.97;4964474;28;20086;-62
2023/04/11 11:31:40;;;;;;;0.60;0.60;;;;;;;13.99;44.24;96058.72;4959659;28;20055;-62
2023/04/11 11:34:08;;;;;;;0.60;0.60;;;;;;;13.37;43.65;96003.38;4957866;28;20086;-64
2023/04/11 11:36:52;;;;;;;0.60;0.60;;;;;;;13.99;45.09;96056.72;4955067;28;20053;-57
2023/04/11 11:39:22;;;;;;;0.60;0.60;;;;;;;14.30;43.06;96041.63;4949789;28;20055;-60
2023/04/11 11:41:50;;;;;;;0.60;0.60;;;;;;;14.39;41.60;96038.31;4950470;28;20050;-56
2023/04/11 11:44:27;;;;;;;0.65;0.65;;;;;;;14.47;42.63;96045.38;4956313;28;20073;-59